createdAt,value
2022-11-08T00:02:27.899Z,2.73
2022-11-08T00:04:57.222Z,2.30
2022-11-08T00:07:42.387Z,3.20
2022-11-08T00:10:28.469Z,3.40
2022-11-08T00:13:13.721Z,3.90
2022-11-08T00:15:41.587Z,3.77
2022-11-08T00:18:09.464Z,1.43
2022-11-08T00:20:38.737Z,1.07
2022-11-08T00:23:06.603Z,2.43
2022-11-08T00:25:34.528Z,2.90
2022-11-08T00:28:02.382Z,1.17
2022-11-08T00:30:31.062Z,1.27
2022-11-08T00:32:58.922Z,1.10
2022-11-08T00:35:26.820Z,0.97
2022-11-08T00:37:56.073Z,2.30
2022-11-08T00:40:23.938Z,3.10
2022-11-08T00:42:51.847Z,6.93
2022-11-08T00:45:20.181Z,4.50
2022-11-08T00:47:48.379Z,4.50
2022-11-08T00:50:16.408Z,4.03
2022-11-08T00:52:44.389Z,4.37
2022-11-08T00:55:13.677Z,3.90
2022-11-08T00:57:58.333Z,2.43
2022-11-08T01:00:27.299Z,6.10
2022-11-08T01:03:15.292Z,4.17
2022-11-08T01:05:43.155Z,3.73
2022-11-08T01:08:11.380Z,2.47
2022-11-08T01:10:41.938Z,2.60
2022-11-08T01:13:09.862Z,3.10
2022-11-08T01:15:38.044Z,7.33
2022-11-08T01:18:06.080Z,4.63
2022-11-08T01:20:34.020Z,8.13
2022-11-08T01:23:01.903Z,5.87
2022-11-08T01:25:29.779Z,5.03
2022-11-08T01:27:59.029Z,5.43
2022-11-08T01:30:26.904Z,4.67
2022-11-08T01:32:54.839Z,9.07
2022-11-08T01:35:22.715Z,6.90
2022-11-08T01:37:51.357Z,1.73
2022-11-08T01:40:19.428Z,5.93
2022-11-08T01:42:47.279Z,5.00
2022-11-08T01:45:16.654Z,3.03
2022-11-08T01:47:44.656Z,7.90
2022-11-08T01:50:13.250Z,3.60
2022-11-08T01:52:41.947Z,11.60
2022-11-08T01:55:12.913Z,4.80
2022-11-08T01:57:44.667Z,9.73
2022-11-08T02:00:13.579Z,10.37
2022-11-08T02:02:43.982Z,7.10
2022-11-08T02:05:25.090Z,9.77
2022-11-08T02:07:58.840Z,5.03
2022-11-08T02:10:29.665Z,6.93
2022-11-08T02:12:57.533Z,8.57
2022-11-08T02:15:25.768Z,9.80
2022-11-08T02:17:55.116Z,7.60
2022-11-08T02:20:23.010Z,12.23
2022-11-08T02:22:53.719Z,12.20
2022-11-08T02:25:22.960Z,11.00
2022-11-08T02:27:50.829Z,21.77
2022-11-08T02:30:18.744Z,10.20
2022-11-08T02:32:47.225Z,11.63
2022-11-08T02:35:16.494Z,10.07
2022-11-08T02:37:44.396Z,13.60
2022-11-08T02:40:12.731Z,14.07
2022-11-08T02:42:41.987Z,12.70
2022-11-08T02:45:10.547Z,9.83
2022-11-08T02:47:38.393Z,11.27
2022-11-08T02:50:07.309Z,16.67
2022-11-08T02:52:35.145Z,15.03
2022-11-08T02:55:03.116Z,12.57
2022-11-08T02:57:32.879Z,15.47
2022-11-08T03:00:02.171Z,17.40
2022-11-08T03:02:30.118Z,16.97
2022-11-08T03:04:58.067Z,17.73
2022-11-08T03:07:26.012Z,16.60
2022-11-08T03:09:54.187Z,15.40
2022-11-08T03:12:22.071Z,20.03
2022-11-08T03:14:49.955Z,16.97
2022-11-08T03:17:19.273Z,20.80
2022-11-08T03:19:47.307Z,16.00
2022-11-08T03:22:15.153Z,16.90
2022-11-08T03:24:43.080Z,23.27
2022-11-08T03:27:10.948Z,18.00
2022-11-08T03:29:38.809Z,18.77
2022-11-08T03:32:06.788Z,19.57
2022-11-08T03:34:36.536Z,17.53
2022-11-08T03:37:05.814Z,21.10
2022-11-08T03:39:33.693Z,20.07
2022-11-08T03:42:03.226Z,13.07
2022-11-08T03:44:31.104Z,17.63
2022-11-08T03:46:58.992Z,19.40
2022-11-08T03:49:26.835Z,13.50
2022-11-08T03:51:56.205Z,15.30
2022-11-08T03:54:24.051Z,26.17
2022-11-08T03:56:51.939Z,20.17
2022-11-08T03:59:19.804Z,17.60
2022-11-08T04:01:47.822Z,22.27
2022-11-08T04:04:15.787Z,18.67
2022-11-08T04:06:43.659Z,23.30
2022-11-08T04:09:15.529Z,15.63
2022-11-08T04:12:02.714Z,19.27
2022-11-08T04:14:48.220Z,25.50
2022-11-08T04:17:16.080Z,31.50
2022-11-08T04:20:01.426Z,22.97
2022-11-08T04:22:29.298Z,27.77
2022-11-08T04:24:58.564Z,28.63
2022-11-08T04:27:26.452Z,14.97
2022-11-08T04:29:54.310Z,22.23
2022-11-08T04:32:22.218Z,29.40
2022-11-08T04:34:50.072Z,16.63
2022-11-08T04:37:17.935Z,19.40
2022-11-08T04:39:45.792Z,21.60
2022-11-08T04:42:15.035Z,19.50
2022-11-08T04:44:42.920Z,22.10
2022-11-08T04:47:11.206Z,15.00
2022-11-08T04:49:39.670Z,28.23
2022-11-08T04:52:08.651Z,11.03
2022-11-08T04:54:36.509Z,31.97
2022-11-08T04:57:04.455Z,20.77
2022-11-08T04:59:33.680Z,30.47
2022-11-08T05:02:01.689Z,17.43
2022-11-08T05:04:29.694Z,18.23
2022-11-08T05:06:57.632Z,22.93
2022-11-08T05:09:25.479Z,25.33
2022-11-08T05:11:53.361Z,21.80
2022-11-08T05:14:21.303Z,13.43
2022-11-08T05:16:51.023Z,27.53
2022-11-08T05:19:39.160Z,19.00
2022-11-08T05:22:24.453Z,26.63
2022-11-08T05:24:52.338Z,25.33
2022-11-08T05:27:20.220Z,26.53
2022-11-08T05:29:48.117Z,17.50
2022-11-08T05:32:17.397Z,40.33
2022-11-08T05:34:45.260Z,27.53
2022-11-08T05:37:13.128Z,20.90
2022-11-08T05:39:41.028Z,26.40
2022-11-08T05:42:08.889Z,35.43
2022-11-08T05:44:36.744Z,19.13
2022-11-08T05:47:04.855Z,27.87
2022-11-08T05:49:34.295Z,28.40
2022-11-08T05:52:02.288Z,32.80
2022-11-08T05:54:30.204Z,27.73
2022-11-08T05:56:58.047Z,26.07
2022-11-08T05:59:25.961Z,20.80
2022-11-08T06:01:53.924Z,22.30
2022-11-08T06:04:21.860Z,25.00
2022-11-08T06:06:52.299Z,16.23
2022-11-08T06:09:20.253Z,25.03
2022-11-08T06:11:48.139Z,24.77
2022-11-08T06:14:16.035Z,28.70
2022-11-08T06:16:43.911Z,18.87
2022-11-08T06:19:11.788Z,24.67
2022-11-08T06:21:39.680Z,22.17
2022-11-08T06:24:09.675Z,20.13
2022-11-08T06:26:37.625Z,19.33
2022-11-08T06:29:05.554Z,14.20
2022-11-08T06:31:33.409Z,19.73
2022-11-08T06:34:01.271Z,14.90
2022-11-08T06:36:29.198Z,12.27
2022-11-08T06:38:57.147Z,15.43
2022-11-08T06:41:27.309Z,13.03
2022-11-08T06:43:55.928Z,19.87
2022-11-08T06:46:23.779Z,20.87
2022-11-08T06:48:51.899Z,17.17
2022-11-08T06:51:19.864Z,19.77
2022-11-08T06:53:47.743Z,17.53
2022-11-08T06:56:15.644Z,27.97
2022-11-08T06:58:44.889Z,21.07
2022-11-08T07:01:13.723Z,24.03
2022-11-08T07:03:41.700Z,23.93
2022-11-08T07:06:09.966Z,22.70
2022-11-08T07:08:37.957Z,10.77
2022-11-08T07:11:06.689Z,19.43
2022-11-08T07:13:34.575Z,28.40
2022-11-08T07:16:03.840Z,19.63
2022-11-08T07:18:31.845Z,19.97
2022-11-08T07:21:01.569Z,15.40
2022-11-08T07:23:30.192Z,20.33
2022-11-08T07:26:00.713Z,18.93
2022-11-08T07:28:29.181Z,13.80
2022-11-08T07:30:59.055Z,17.20
2022-11-08T07:33:28.367Z,22.30
2022-11-08T07:35:56.399Z,20.20
2022-11-08T07:38:26.059Z,27.17
2022-11-08T07:40:56.792Z,15.77
2022-11-08T07:43:24.969Z,16.50
2022-11-08T07:45:55.044Z,15.27
2022-11-08T07:48:23.002Z,13.13
2022-11-08T07:50:52.247Z,18.67
2022-11-08T07:53:20.472Z,19.17
2022-11-08T07:55:49.159Z,22.63
2022-11-08T07:58:17.152Z,21.03
2022-11-08T08:00:45.503Z,19.93
2022-11-08T08:03:14.355Z,25.10
2022-11-08T08:05:42.886Z,21.10
2022-11-08T08:08:12.719Z,20.17
2022-11-08T08:10:40.946Z,12.13
2022-11-08T08:13:08.888Z,15.27
2022-11-08T08:15:36.803Z,20.77
2022-11-08T08:18:05.655Z,22.90
2022-11-08T08:20:33.603Z,18.00
2022-11-08T08:23:01.558Z,15.57
2022-11-08T08:25:31.619Z,22.37
2022-11-08T08:28:00.907Z,12.13
2022-11-08T08:30:29.029Z,14.57
2022-11-08T08:33:26.963Z,25.10
2022-11-08T08:35:52.804Z,16.30
2022-11-08T08:38:20.700Z,11.43
2022-11-08T08:40:50.048Z,21.20
2022-11-08T08:43:18.238Z,17.87
2022-11-08T08:45:46.420Z,16.87
2022-11-08T08:48:14.293Z,15.50
2022-11-08T08:50:42.206Z,21.33
2022-11-08T08:53:10.989Z,19.00
2022-11-08T08:55:39.414Z,20.03
2022-11-08T08:58:08.680Z,13.90
2022-11-08T09:03:24.586Z,11.27
2022-11-08T09:05:52.605Z,9.27
2022-11-08T09:08:20.573Z,13.50
2022-11-08T09:10:48.534Z,16.13
2022-11-08T09:13:18.119Z,10.23
2022-11-08T09:15:46.232Z,8.40
2022-11-08T09:18:14.140Z,8.00
2022-11-08T09:20:43.887Z,6.83
2022-11-08T09:23:12.047Z,5.00
2022-11-08T09:25:39.974Z,6.13
2022-11-08T09:28:07.897Z,17.53
2022-11-08T09:30:37.284Z,3.63
2022-11-08T09:33:05.351Z,5.33
2022-11-08T09:35:33.544Z,13.20
2022-11-08T09:38:01.579Z,3.67
2022-11-08T09:40:32.384Z,4.70
2022-11-08T09:43:08.001Z,7.37
2022-11-08T09:45:37.966Z,11.17
2022-11-08T09:48:06.900Z,3.20
2022-11-08T09:50:38.578Z,3.10
2022-11-08T09:53:16.436Z,2.60
2022-11-08T09:55:46.074Z,9.87
2022-11-08T09:58:35.533Z,11.80
2022-11-08T10:01:05.068Z,3.83
2022-11-08T10:03:32.946Z,10.47
2022-11-08T10:06:14.967Z,8.10
2022-11-08T10:08:46.994Z,3.90
2022-11-08T10:11:21.125Z,5.40
2022-11-08T10:13:56.755Z,5.07
2022-11-08T10:16:30.384Z,9.37
2022-11-08T10:19:07.490Z,11.07
2022-11-08T10:21:56.724Z,7.80
2022-11-08T10:24:32.847Z,10.87
2022-11-08T10:27:00.748Z,8.70
2022-11-08T10:29:30.228Z,11.30
2022-11-08T10:32:01.313Z,8.40
2022-11-08T10:34:30.361Z,9.23
2022-11-08T10:37:01.607Z,11.20
2022-11-08T10:39:29.739Z,7.23
2022-11-08T10:42:00.055Z,12.10
2022-11-08T10:44:28.024Z,7.30
2022-11-08T10:47:00.971Z,6.77
2022-11-08T10:49:30.420Z,7.10
2022-11-08T10:51:59.463Z,7.23
2022-11-08T10:54:44.268Z,6.00
2022-11-08T10:57:13.197Z,6.37
2022-11-08T10:59:41.093Z,3.70
2022-11-08T11:02:29.169Z,10.63
2022-11-08T11:05:21.995Z,3.07
2022-11-08T11:08:02.939Z,4.60
2022-11-08T11:10:31.772Z,5.20
2022-11-08T11:13:02.664Z,2.37
2022-11-08T11:15:38.119Z,5.57
2022-11-08T11:18:18.732Z,1.80
2022-11-08T11:20:59.104Z,1.77
2022-11-08T11:23:34.099Z,2.63
2022-11-08T11:26:02.049Z,4.80
2022-11-08T11:28:29.951Z,5.80
2022-11-08T11:31:00.979Z,5.63
2022-11-08T11:33:31.055Z,7.50
2022-11-08T11:35:59.743Z,4.17
2022-11-08T11:38:34.037Z,2.40
2022-11-08T11:41:08.334Z,2.67
2022-11-08T11:43:42.647Z,3.63
2022-11-08T11:46:14.717Z,1.43
2022-11-08T11:48:47.035Z,7.57
2022-11-08T11:51:14.927Z,1.70
2022-11-08T11:53:48.459Z,1.80
2022-11-08T11:56:27.409Z,3.83
2022-11-08T11:59:08.497Z,5.90
2022-11-08T12:01:54.236Z,3.93
2022-11-08T12:04:33.624Z,4.37
2022-11-08T12:07:05.354Z,2.03
2022-11-08T12:09:42.683Z,7.07
2022-11-08T12:12:17.872Z,7.80
2022-11-08T12:14:51.330Z,5.13
2022-11-08T12:17:35.828Z,6.77
2022-11-08T12:20:20.408Z,6.17
2022-11-08T12:22:57.025Z,6.13
2022-11-08T12:25:26.036Z,5.20
2022-11-08T12:27:54.855Z,12.17
2022-11-08T12:30:25.663Z,4.47
2022-11-08T12:33:11.569Z,8.27
2022-11-08T12:35:44.360Z,8.03
2022-11-08T12:38:25.094Z,11.87
2022-11-08T12:40:55.730Z,9.80
2022-11-08T12:43:35.236Z,4.23
2022-11-08T12:46:10.335Z,7.63
2022-11-08T12:48:50.816Z,7.67
2022-11-08T12:51:22.573Z,6.63
2022-11-08T12:53:59.943Z,6.23
2022-11-08T12:56:29.835Z,9.27
2022-11-08T12:58:57.725Z,1.83
2022-11-08T13:01:25.699Z,2.50
2022-11-08T13:04:27.092Z,3.00
2022-11-08T13:06:58.975Z,6.63
2022-11-08T13:09:36.139Z,4.93
2022-11-08T13:12:08.349Z,6.77
2022-11-08T13:14:41.107Z,4.13
2022-11-08T13:17:18.093Z,2.60
2022-11-08T13:20:05.655Z,3.00
2022-11-08T13:22:47.731Z,6.97
2022-11-08T13:25:43.939Z,2.70
2022-11-08T13:28:40.531Z,4.82
2022-11-08T13:31:30.555Z,7.93
2022-11-08T13:34:12.246Z,3.90
2022-11-08T13:36:47.147Z,6.50
2022-11-08T13:39:33.845Z,4.90
2022-11-08T13:42:03.452Z,5.75
2022-11-08T13:44:57.799Z,8.95
2022-11-08T13:47:53.406Z,2.67
2022-11-08T13:50:45.861Z,3.10
2022-11-08T13:53:39.621Z,4.28
2022-11-08T13:56:26.487Z,4.45
2022-11-08T13:58:54.406Z,6.78
2022-11-08T14:01:57.117Z,9.43
2022-11-08T14:04:25.646Z,8.20
2022-11-08T14:06:58.198Z,5.93
2022-11-08T14:09:33.212Z,8.98
2022-11-08T14:12:03.973Z,7.68
2022-11-08T14:14:39.867Z,9.15
2022-11-08T14:17:40.746Z,7.28
2022-11-08T14:20:18.280Z,9.33
2022-11-08T14:22:50.212Z,11.30
2022-11-08T14:25:20.153Z,10.23
2022-11-08T14:27:49.534Z,4.73
2022-11-08T14:30:18.628Z,9.77
2022-11-08T14:32:46.533Z,6.87
2022-11-08T14:35:21.187Z,5.00
2022-11-08T14:37:49.116Z,7.47
2022-11-08T14:40:19.011Z,4.07
2022-11-08T14:42:46.882Z,4.60
2022-11-08T14:45:16.487Z,8.63
2022-11-08T14:47:44.486Z,12.80
2022-11-08T14:50:19.320Z,6.93
2022-11-08T14:52:47.257Z,7.67
2022-11-08T14:55:16.482Z,9.63
2022-11-08T14:57:44.916Z,15.50
2022-11-08T15:00:18.985Z,7.47
2022-11-08T15:02:48.278Z,8.20
2022-11-08T15:05:30.468Z,12.17
2022-11-08T15:07:58.709Z,8.53
2022-11-08T15:10:26.744Z,11.60
2022-11-08T15:12:54.700Z,13.50
2022-11-08T15:15:25.783Z,13.00
2022-11-08T15:18:12.444Z,12.07
2022-11-08T15:20:40.561Z,10.17
2022-11-08T15:23:43.417Z,12.83
2022-11-08T15:26:22.424Z,15.10
2022-11-08T15:29:06.919Z,13.90
2022-11-08T15:31:38.879Z,12.93
2022-11-08T15:34:06.824Z,14.07
2022-11-08T15:36:37.495Z,11.67
2022-11-08T15:39:11.816Z,16.50
2022-11-08T15:41:40.605Z,22.37
2022-11-08T15:44:26.098Z,13.00
2022-11-08T15:46:55.614Z,15.33
2022-11-08T15:49:26.122Z,10.17
2022-11-08T15:51:54.646Z,10.20
2022-11-08T15:54:23.258Z,17.60
2022-11-08T15:56:51.671Z,10.40
2022-11-08T15:59:22.147Z,18.07
2022-11-08T16:01:52.451Z,16.57
2022-11-08T16:04:21.751Z,13.80
2022-11-08T16:06:49.805Z,10.80
2022-11-08T16:09:17.791Z,7.43
2022-11-08T16:11:45.981Z,9.87
2022-11-08T16:14:16.246Z,7.90
2022-11-08T16:16:44.134Z,9.00
2022-11-08T16:19:18.556Z,16.03
2022-11-08T16:21:47.864Z,13.50
2022-11-08T16:24:15.749Z,13.57
2022-11-08T16:26:43.870Z,18.47
2022-11-08T16:29:17.889Z,19.37
2022-11-08T16:31:45.818Z,13.93
2022-11-08T16:34:13.696Z,11.67
2022-11-08T16:36:41.590Z,19.43
2022-11-08T16:39:14.773Z,20.07
2022-11-08T16:41:43.033Z,13.07
2022-11-08T16:44:11.325Z,12.70
2022-11-08T16:46:39.259Z,13.30
2022-11-08T16:49:07.529Z,20.37
2022-11-08T16:51:35.441Z,11.60
2022-11-08T16:54:03.898Z,13.03
2022-11-08T16:56:33.193Z,11.87
2022-11-08T16:59:01.047Z,12.97
2022-11-08T17:01:31.977Z,14.23
2022-11-08T17:03:59.914Z,7.93
2022-11-08T17:06:27.836Z,11.27
2022-11-08T17:08:55.859Z,16.47
2022-11-08T17:11:24.153Z,13.43
2022-11-08T17:13:53.714Z,21.40
2022-11-08T17:16:21.598Z,24.03
2022-11-08T17:18:53.064Z,15.23
2022-11-08T17:24:09.670Z,15.23
2022-11-08T17:26:37.755Z,18.73
2022-11-08T17:29:08.155Z,10.27
2022-11-08T17:31:36.055Z,12.80
2022-11-08T17:34:03.964Z,14.00
2022-11-08T17:36:31.824Z,10.57
2022-11-08T17:38:59.782Z,13.43
2022-11-08T17:41:27.842Z,8.13
2022-11-08T17:43:55.776Z,13.73
2022-11-08T17:46:25.037Z,15.07
2022-11-08T17:48:53.237Z,13.33
2022-11-08T17:51:21.251Z,12.27
2022-11-08T17:53:49.150Z,6.47
2022-11-08T17:56:17.453Z,11.97
2022-11-08T17:58:45.316Z,11.23
2022-11-08T18:01:13.351Z,23.30
2022-11-08T18:03:42.788Z,25.13
2022-11-08T18:06:12.424Z,13.23
2022-11-08T18:08:40.470Z,13.93
2022-11-08T18:11:08.406Z,19.40
2022-11-08T18:13:36.321Z,20.33
2022-11-08T18:16:08.192Z,24.43
2022-11-08T18:18:36.109Z,24.23
2022-11-08T18:21:05.442Z,20.93
2022-11-08T18:23:33.326Z,25.57
2022-11-08T18:26:01.513Z,25.93
2022-11-08T18:28:29.452Z,25.20
2022-11-08T18:30:57.391Z,22.73
2022-11-08T18:33:25.294Z,27.43
2022-11-08T18:35:53.149Z,32.23
2022-11-08T18:38:22.430Z,34.83
2022-11-08T18:40:50.364Z,40.17
2022-11-08T18:43:18.639Z,24.93
2022-11-08T18:45:46.792Z,19.90
2022-11-08T18:48:14.721Z,28.40
2022-11-08T18:50:42.698Z,23.57
2022-11-08T18:53:10.590Z,24.93
2022-11-08T18:55:39.871Z,37.33
2022-11-08T18:58:08.357Z,17.33
2022-11-08T19:00:36.223Z,27.50
2022-11-08T19:03:04.170Z,27.23
2022-11-08T19:05:32.072Z,33.00
2022-11-08T19:07:59.975Z,22.03
2022-11-08T19:10:27.891Z,19.30
2022-11-08T19:12:57.184Z,19.87
2022-11-08T19:15:27.218Z,23.57
2022-11-08T19:17:55.123Z,29.37
2022-11-08T19:20:24.046Z,28.63
2022-11-08T19:22:54.547Z,28.40
2022-11-08T19:25:22.427Z,22.23
2022-11-08T19:27:50.321Z,25.00
2022-11-08T19:30:19.987Z,17.93
2022-11-08T19:32:47.982Z,28.63
2022-11-08T19:35:19.006Z,27.47
2022-11-08T19:37:46.912Z,22.37
2022-11-08T19:40:15.539Z,18.50
2022-11-08T19:42:43.481Z,17.27
2022-11-08T19:45:11.883Z,19.50
2022-11-08T19:47:41.254Z,27.30
2022-11-08T19:50:09.505Z,24.03
2022-11-08T19:52:37.419Z,12.70
2022-11-08T19:55:07.109Z,22.83
2022-11-08T19:57:35.727Z,25.30
2022-11-08T20:00:04.699Z,34.03
2022-11-08T20:02:32.695Z,28.97
2022-11-08T20:05:01.981Z,25.07
2022-11-08T20:07:29.851Z,19.00
2022-11-08T20:09:57.871Z,24.17
2022-11-08T20:12:25.843Z,25.17
2022-11-08T20:14:53.880Z,30.43
2022-11-08T20:17:21.912Z,24.73
2022-11-08T20:19:51.862Z,30.37
2022-11-08T20:22:21.125Z,23.90
2022-11-08T20:24:49.076Z,22.17
2022-11-08T20:27:16.963Z,27.30
2022-11-08T20:29:47.869Z,28.37
2022-11-08T20:32:15.803Z,18.00
2022-11-08T20:34:43.751Z,13.00
2022-11-08T20:37:14.405Z,13.70
2022-11-08T20:39:44.082Z,11.50
2022-11-08T20:42:12.367Z,19.03
2022-11-08T20:44:40.244Z,23.00
2022-11-08T20:47:08.741Z,21.47
2022-11-08T20:49:36.764Z,32.03
2022-11-08T20:52:04.639Z,30.23
2022-11-08T20:54:32.540Z,29.10
2022-11-08T20:57:01.876Z,43.30
2022-11-08T20:59:29.935Z,33.37
2022-11-08T21:01:57.841Z,33.60
2022-11-08T21:04:25.941Z,21.20
2022-11-08T21:07:39.663Z,22.93
2022-11-08T21:09:49.727Z,37.00
2022-11-08T21:12:20.169Z,25.67
2022-11-08T21:14:48.547Z,26.67
2022-11-08T21:17:21.806Z,24.83
2022-11-08T21:19:51.809Z,25.90
2022-11-08T21:22:19.876Z,25.13
2022-11-08T21:24:48.980Z,27.93
2022-11-08T21:27:17.074Z,16.70
2022-11-08T21:29:46.309Z,16.53
2022-11-08T21:32:14.526Z,29.13
2022-11-08T21:34:45.958Z,17.83
2022-11-08T21:37:14.733Z,23.97
2022-11-08T21:39:42.744Z,22.13
2022-11-08T21:42:10.801Z,16.70
2022-11-08T21:44:38.914Z,18.57
2022-11-08T21:47:08.300Z,24.73
2022-11-08T21:49:36.332Z,19.47
2022-11-08T21:52:04.717Z,16.63
2022-11-08T21:54:32.624Z,23.57
2022-11-08T21:57:00.593Z,17.07
2022-11-08T21:59:28.558Z,15.67
2022-11-08T22:01:56.498Z,25.07
2022-11-08T22:04:33.659Z,17.90
2022-11-08T22:07:01.947Z,13.53
2022-11-08T22:09:30.489Z,15.60
2022-11-08T22:11:58.453Z,19.53
2022-11-08T22:14:26.362Z,13.20
2022-11-08T22:16:54.294Z,13.13
2022-11-08T22:19:22.232Z,15.10
2022-11-08T22:21:51.618Z,22.50
2022-11-08T22:24:20.433Z,16.87
2022-11-08T22:26:48.648Z,17.37
2022-11-08T22:29:17.150Z,23.80
2022-11-08T22:31:45.195Z,15.33
2022-11-08T22:34:13.083Z,13.43
2022-11-08T22:36:44.822Z,14.80
2022-11-08T22:39:15.043Z,20.50
2022-11-08T22:41:43.220Z,13.03
2022-11-08T22:44:12.265Z,14.40
2022-11-08T22:46:40.956Z,24.67
2022-11-08T22:49:08.922Z,14.47
2022-11-08T22:51:36.890Z,20.43
2022-11-08T22:54:05.120Z,20.70
2022-11-08T22:56:35.219Z,21.77
2022-11-08T22:59:03.385Z,20.53
2022-11-08T23:01:31.316Z,28.07
2022-11-08T23:03:59.208Z,18.90
2022-11-08T23:06:27.168Z,18.30
2022-11-08T23:08:55.254Z,25.23
2022-11-08T23:11:40.549Z,19.93
2022-11-08T23:14:32.442Z,15.57
2022-11-08T23:17:04.583Z,17.33
2022-11-08T23:19:49.825Z,25.30
2022-11-08T23:22:35.718Z,17.37
2022-11-08T23:25:03.631Z,18.40
2022-11-08T23:27:49.578Z,20.50
2022-11-08T23:30:36.651Z,12.40
2022-11-08T23:33:04.999Z,14.47
2022-11-08T23:35:32.901Z,12.63
2022-11-08T23:38:00.751Z,22.47
2022-11-08T23:40:46.284Z,10.87
2022-11-08T23:43:32.200Z,19.73
2022-11-08T23:46:07.485Z,18.70
2022-11-08T23:48:35.383Z,10.93
2022-11-08T23:51:03.234Z,22.07
2022-11-08T23:53:31.129Z,10.50
2022-11-08T23:55:59.230Z,11.13
2022-11-08T23:58:29.745Z,8.67
